Terminal Aerodrome Forecast
Issued by NWS Shreveport, LA

Home | Current Version | Previous Version | Text Only | Print | Product List | Glossary On
Versions: 1 2 3 4 5 6 7 8 9 10 11 12 13 14
937
FTUS44 KSHV 132155 AAA
TAFGGG
TAF AMD
KGGG 132155Z 1322/1418 21011KT P6SM FEW300
     FM140000 22005KT P6SM SKC
     FM141400 01006KT P6SM SKC=

USA.gov is the U.S. government's official web portal to all federal, state and local government web resources and services.